Time;durP1;ratioP1;P1;durP2;ratioP2;P2;SDS_P1;SDS_P2;PMS_P1;PMS_P2;Temp;Humidity;BMP_temperature;BMP_pressure;BME280_temperature;BME280_humidity;BME280_pressure;Samples;Min_cycle;Max_cycle;Signal;HPM_P1;HPM_P2
2023/02/18 00:01:18;;;;;;;7.57;4.55;;;;;;;9.50;74.92;98212.00;4971501;28;20030;-78
2023/02/18 00:03:44;;;;;;;7.82;4.75;;;;;;;9.51;74.70;98221.84;4968354;28;20041;-78
2023/02/18 00:06:33;;;;;;;10.85;4.55;;;;;;;9.53;74.26;98225.09;4970874;28;20055;-78
2023/02/18 00:09:01;;;;;;;7.82;4.43;;;;;;;9.54;74.91;98218.50;4969075;28;20061;-78
2023/02/18 00:11:27;;;;;;;9.07;5.18;;;;;;;9.56;74.67;98212.75;4971840;28;20034;-78
2023/02/18 00:13:55;;;;;;;9.85;5.07;;;;;;;9.57;74.13;98228.09;4971237;28;20037;-78
2023/02/18 00:16:22;;;;;;;9.35;4.63;;;;;;;9.56;75.01;98216.31;4970471;28;20073;-78
2023/02/18 00:18:48;;;;;;;7.10;4.13;;;;;;;9.56;74.84;98216.31;4971181;28;20034;-77
2023/02/18 00:21:13;;;;;;;7.53;4.05;;;;;;;9.56;74.75;98218.25;4971440;28;20035;-79
2023/02/18 00:23:39;;;;;;;7.43;4.18;;;;;;;9.58;74.97;98218.75;4969217;28;20047;-77
2023/02/18 00:26:10;;;;;;;6.00;3.30;;;;;;;9.60;74.51;98228.28;4969258;28;20023;-78
2023/02/18 00:28:36;;;;;;;4.63;3.33;;;;;;;9.61;74.30;98229.09;4971015;28;20026;-79
2023/02/18 00:31:11;;;;;;;4.75;2.85;;;;;;;9.63;74.69;98233.19;4970240;28;20030;-80
2023/02/18 00:33:37;;;;;;;5.05;2.70;;;;;;;9.67;73.66;98242.44;4970782;28;20034;-79
2023/02/18 00:36:05;;;;;;;3.70;2.20;;;;;;;9.73;73.80;98245.09;4970406;28;20431;-78
2023/02/18 00:38:31;;;;;;;3.38;2.25;;;;;;;9.79;72.51;98269.38;4970033;28;20032;-78
2023/02/18 00:40:57;;;;;;;3.17;1.70;;;;;;;9.86;73.08;98251.75;4970679;28;20026;-78
2023/02/18 00:43:22;;;;;;;3.42;1.70;;;;;;;9.93;72.30;98250.25;4970587;28;20039;-78
2023/02/18 00:45:47;;;;;;;3.33;1.92;;;;;;;10.00;71.56;98271.81;4970357;28;20095;-78
2023/02/18 00:48:13;;;;;;;2.30;1.70;;;;;;;10.06;71.86;98262.41;4970333;28;20027;-78
2023/02/18 00:50:38;;;;;;;5.57;2.38;;;;;;;10.13;70.93;98273.00;4970230;28;20037;-78
2023/02/18 00:53:03;;;;;;;6.45;2.75;;;;;;;10.19;70.49;98280.00;4968723;28;20078;-78
2023/02/18 00:55:29;;;;;;;7.28;2.85;;;;;;;10.23;69.54;98299.44;4970017;28;20576;-78
2023/02/18 00:57:54;;;;;;;10.23;3.47;;;;;;;10.24;69.51;98322.97;4969537;28;20023;-77
2023/02/18 01:00:20;;;;;;;3.55;1.88;;;;;;;10.18;70.57;98324.16;4969937;28;20495;-76
2023/02/18 01:02:45;;;;;;;6.32;2.72;;;;;;;10.08;71.17;98327.88;4970701;28;20022;-76
2023/02/18 01:05:11;;;;;;;4.43;2.20;;;;;;;10.01;72.08;98336.44;4970138;28;20066;-76
2023/02/18 01:07:36;;;;;;;4.82;2.30;;;;;;;9.90;71.72;98341.25;4968784;28;20034;-76
2023/02/18 01:10:02;;;;;;;3.03;2.25;;;;;;;9.77;71.27;98331.84;4970284;28;20058;-77
2023/02/18 01:12:27;;;;;;;4.80;2.30;;;;;;;9.68;71.95;98317.16;4969083;28;20038;-76
2023/02/18 01:14:53;;;;;;;4.72;2.58;;;;;;;9.63;71.10;98314.50;4968567;28;20065;-77
2023/02/18 01:17:18;;;;;;;4.22;2.50;;;;;;;9.56;71.05;98322.28;4969419;28;20031;-77
2023/02/18 01:19:43;;;;;;;3.35;2.13;;;;;;;9.51;71.74;98326.69;4970615;28;20109;-77
2023/02/18 01:22:09;;;;;;;3.90;2.10;;;;;;;9.46;71.54;98329.50;4985220;28;20027;-76
2023/02/18 01:24:34;;;;;;;3.35;1.85;;;;;;;9.44;70.65;98339.94;4970257;28;20387;-76
2023/02/18 01:26:59;;;;;;;4.90;1.85;;;;;;;9.37;70.41;98334.78;4969350;28;20078;-77
2023/02/18 01:29:26;;;;;;;4.38;2.00;;;;;;;9.32;69.80;98342.25;4969913;28;20023;-77
2023/02/18 01:31:51;;;;;;;3.92;1.90;;;;;;;9.28;70.46;98311.91;4969918;28;20029;-78
2023/02/18 01:34:17;;;;;;;3.03;1.50;;;;;;;9.26;69.14;98349.72;4970231;28;20023;-76
2023/02/18 01:36:42;;;;;;;3.50;1.77;;;;;;;9.21;69.81;98336.88;4969213;28;20054;-76
2023/02/18 01:39:07;;;;;;;4.50;1.67;;;;;;;9.20;68.94;98326.22;4970111;28;20025;-77
2023/02/18 01:41:33;;;;;;;5.20;1.80;;;;;;;9.21;68.34;98327.88;4969570;28;20568;-77
2023/02/18 01:44:32;;;;;;;3.63;1.05;;;;;;;9.16;69.14;98345.16;4970050;28;20018;-76
2023/02/18 01:46:57;;;;;;;1.80;1.20;;;;;;;9.11;69.33;98352.59;4968934;28;20030;-76
2023/02/18 01:49:29;;;;;;;2.67;1.30;;;;;;;9.02;69.70;98360.63;4969645;28;20045;-75
2023/02/18 01:52:00;;;;;;;5.43;2.00;;;;;;;8.93;69.55;98347.56;4968196;28;20049;-76
2023/02/18 01:54:38;;;;;;;3.40;1.58;;;;;;;8.85;69.72;98344.63;4969710;28;20050;-76
2023/02/18 01:57:06;;;;;;;3.10;1.40;;;;;;;8.76;70.25;98339.00;4967745;28;20037;-76
2023/02/18 01:59:36;;;;;;;2.70;1.63;;;;;;;8.72;70.58;98340.66;4969740;28;20058;-76
2023/02/18 02:02:02;;;;;;;2.47;1.35;;;;;;;8.68;70.35;98336.88;4969990;28;20019;-76
2023/02/18 02:04:27;;;;;;;3.42;1.35;;;;;;;8.66;70.17;98344.53;4969654;28;20034;-77
2023/02/18 02:06:53;;;;;;;1.67;1.30;;;;;;;8.62;71.34;98328.69;4969098;28;20029;-77
2023/02/18 02:09:22;;;;;;;2.85;1.30;;;;;;;8.59;70.76;98315.59;4969469;28;20388;-76
2023/02/18 02:12:14;;;;;;;2.90;1.63;;;;;;;8.56;71.37;98327.13;4969520;28;20114;-77
2023/02/18 02:14:50;;;;;;;3.42;1.83;;;;;;;8.50;70.90;98336.44;4968587;28;20026;-76
2023/02/18 02:17:46;;;;;;;2.50;1.38;;;;;;;8.44;71.15;98335.66;4968981;28;20053;-76
2023/02/18 02:20:29;;;;;;;3.22;1.55;;;;;;;8.42;71.01;98332.38;4969378;28;20057;-76
2023/02/18 02:22:58;;;;;;;2.17;1.30;;;;;;;8.39;71.23;98334.84;4966980;28;20041;-77
2023/02/18 02:26:12;;;;;;;2.55;1.70;;;;;;;8.33;71.80;98329.47;4971452;28;20035;-77
2023/02/18 02:28:50;;;;;;;5.88;2.70;;;;;;;8.37;71.68;98334.31;4968193;28;20468;-77
2023/02/18 02:31:27;;;;;;;6.28;2.92;;;;;;;8.31;71.70;98339.84;4974081;28;20034;-77
2023/02/18 02:34:01;;;;;;;3.67;2.00;;;;;;;8.33;72.35;98342.28;4974284;28;20085;-77
2023/02/18 02:37:14;;;;;;;4.45;2.15;;;;;;;8.34;71.77;98344.75;4973309;28;20027;-77
2023/02/18 02:40:01;;;;;;;2.42;1.70;;;;;;;8.36;72.18;98349.91;4971285;28;20097;-77
2023/02/18 02:42:41;;;;;;;2.88;1.73;;;;;;;8.33;72.67;98343.13;4989264;28;20562;-77
2023/02/18 02:45:10;;;;;;;2.10;1.70;;;;;;;8.33;72.31;98345.03;4974008;28;20019;-77
2023/02/18 02:47:45;;;;;;;2.70;1.55;;;;;;;8.33;72.44;98362.25;4973576;28;20030;-77
2023/02/18 02:50:16;;;;;;;2.90;1.90;;;;;;;8.32;72.61;98352.41;4971993;28;20031;-77
2023/02/18 02:52:53;;;;;;;3.10;1.75;;;;;;;8.30;72.48;98360.09;4970663;28;20046;-76
2023/02/18 02:55:19;;;;;;;2.38;1.83;;;;;;;8.31;73.07;98353.50;4973035;28;20055;-77
2023/02/18 02:57:54;;;;;;;3.15;1.70;;;;;;;8.30;72.62;98362.81;4972745;28;20478;-77
2023/02/18 03:00:48;;;;;;;2.92;1.75;;;;;;;8.29;72.25;98358.44;4973663;28;20058;-76
2023/02/18 03:03:24;;;;;;;3.83;2.10;;;;;;;8.29;72.04;98360.34;4973648;28;20063;-77
2023/02/18 03:06:14;;;;;;;2.70;1.70;;;;;;;8.30;71.92;98361.97;4988652;28;20023;-77
2023/02/18 03:08:57;;;;;;;3.30;1.77;;;;;;;8.29;72.60;98374.00;4973535;28;20069;-77
2023/02/18 03:11:22;;;;;;;2.78;1.80;;;;;;;8.30;71.97;98367.44;4972612;28;20030;-78
2023/02/18 03:14:13;;;;;;;3.30;1.95;;;;;;;8.28;71.32;98378.66;4972397;28;20391;-78
2023/02/18 03:16:49;;;;;;;2.08;1.70;;;;;;;8.28;72.03;98372.38;4972885;28;20035;-78
2023/02/18 03:19:30;;;;;;;3.33;1.73;;;;;;;8.27;72.12;98374.31;4972953;28;20122;-77
2023/02/18 03:21:59;;;;;;;3.83;1.90;;;;;;;8.28;71.70;98372.38;4973391;28;20050;-77
2023/02/18 03:24:33;;;;;;;2.17;1.53;;;;;;;8.30;71.56;98375.66;4973953;28;20018;-77
2023/02/18 03:27:07;;;;;;;2.70;1.58;;;;;;;8.31;71.40;98377.28;4972626;28;20019;-77
2023/02/18 03:29:33;;;;;;;3.25;1.67;;;;;;;8.31;71.33;98378.09;4974558;28;20118;-77
2023/02/18 03:32:03;;;;;;;3.05;1.40;;;;;;;8.31;70.95;98369.91;4973268;28;20027;-77
2023/02/18 03:34:31;;;;;;;2.13;1.27;;;;;;;8.33;69.59;98366.88;4972825;28;20554;-77
2023/02/18 03:36:58;;;;;;;2.33;1.25;;;;;;;8.32;70.33;98382.47;4971824;28;20030;-77
2023/02/18 03:39:26;;;;;;;2.67;1.20;;;;;;;8.33;69.02;98380.53;4972875;28;20711;-77
2023/02/18 03:41:52;;;;;;;1.60;1.23;;;;;;;8.30;69.17;98371.00;4973463;28;20022;-78
2023/02/18 03:44:17;;;;;;;1.63;1.00;;;;;;;8.28;67.76;98378.66;4972909;28;20027;-77
2023/02/18 03:46:44;;;;;;;2.10;1.10;;;;;;;8.28;68.29;98386.03;4971859;28;20066;-77
2023/02/18 03:49:11;;;;;;;2.28;1.13;;;;;;;8.26;67.14;98375.41;4972652;28;20027;-77
2023/02/18 03:51:36;;;;;;;3.58;1.02;;;;;;;8.25;66.15;98379.22;4970822;28;20118;-77
2023/02/18 03:54:02;;;;;;;1.90;1.10;;;;;;;8.22;64.93;98390.72;4972841;28;20114;-77
2023/02/18 03:56:27;;;;;;;2.95;1.08;;;;;;;8.19;66.40;98385.81;4971622;28;20034;-77
2023/02/18 03:58:53;;;;;;;1.25;0.90;;;;;;;8.17;66.02;98383.34;4972275;28;20387;-77
2023/02/18 04:01:18;;;;;;;1.23;0.98;;;;;;;8.15;67.01;98382.81;4972182;28;20029;-77
2023/02/18 04:03:43;;;;;;;1.55;0.70;;;;;;;8.14;65.80;98388.59;4972307;28;20586;-78
2023/02/18 04:06:09;;;;;;;2.55;1.05;;;;;;;8.12;66.05;98396.25;4972135;28;20026;-77
2023/02/18 04:08:35;;;;;;;2.08;1.38;;;;;;;8.10;65.58;98395.72;4972220;28;20038;-77
2023/02/18 04:11:00;;;;;;;1.48;0.95;;;;;;;8.08;66.07;98400.63;4972159;28;20035;-78
2023/02/18 04:13:26;;;;;;;1.75;1.00;;;;;;;8.05;66.93;98404.75;4972379;28;20030;-78
2023/02/18 04:15:52;;;;;;;3.03;1.45;;;;;;;8.02;66.37;98399.84;4971476;28;20031;-78
2023/02/18 04:18:18;;;;;;;2.15;1.40;;;;;;;8.00;66.80;98413.78;4971619;28;20538;-77
2023/02/18 04:20:45;;;;;;;3.10;1.23;;;;;;;7.98;66.22;98413.22;4972212;28;20031;-78
2023/02/18 04:23:11;;;;;;;1.23;0.77;;;;;;;7.95;65.88;98426.66;4969632;28;20045;-78
2023/02/18 04:25:37;;;;;;;2.42;1.00;;;;;;;7.88;65.93;98411.38;4972329;28;20037;-79
2023/02/18 04:28:03;;;;;;;3.03;0.95;;;;;;;7.87;65.29;98414.41;4971781;28;20023;-78
2023/02/18 04:30:29;;;;;;;1.60;0.85;;;;;;;7.81;64.92;98416.31;4971858;28;20110;-78
2023/02/18 04:32:54;;;;;;;1.23;0.77;;;;;;;7.78;65.37;98421.53;4972036;28;20102;-79
2023/02/18 04:35:19;;;;;;;2.45;1.00;;;;;;;7.74;64.48;98416.63;4972018;28;20027;-78
2023/02/18 04:37:45;;;;;;;2.33;0.95;;;;;;;7.72;63.08;98424.28;4970377;28;20048;-78
2023/02/18 04:40:11;;;;;;;1.95;0.90;;;;;;;7.68;63.99;98425.91;4968489;28;20026;-78
2023/02/18 04:42:36;;;;;;;2.13;1.10;;;;;;;7.67;64.05;98421.56;4971956;28;20031;-78
2023/02/18 04:45:02;;;;;;;1.42;0.95;;;;;;;7.64;64.46;98430.28;4970739;28;20031;-78
2023/02/18 04:47:27;;;;;;;2.47;1.00;;;;;;;7.64;64.23;98421.31;4971492;28;20035;-79
2023/02/18 04:49:53;;;;;;;1.95;0.90;;;;;;;7.60;65.08;98430.03;4986826;28;20037;-78
2023/02/18 04:52:19;;;;;;;1.92;0.93;;;;;;;7.59;64.74;98427.56;4971264;28;20047;-78
2023/02/18 04:54:44;;;;;;;1.10;0.90;;;;;;;7.56;65.06;98431.69;4972238;28;20485;-78
2023/02/18 04:57:10;;;;;;;1.45;1.15;;;;;;;7.55;63.54;98437.41;4971660;28;20031;-77
2023/02/18 04:59:35;;;;;;;2.63;1.08;;;;;;;7.52;63.71;98438.78;4971382;28;20502;-78
2023/02/18 05:02:01;;;;;;;1.50;0.90;;;;;;;7.50;64.06;98437.44;4971938;28;20115;-78
2023/02/18 05:04:26;;;;;;;3.38;1.20;;;;;;;7.50;64.47;98442.91;4971569;28;20034;-78
2023/02/18 05:06:51;;;;;;;38.63;18.63;;;;;;;7.48;64.60;98448.63;4971141;28;20030;-78
2023/02/18 05:09:17;;;;;;;11.18;4.78;;;;;;;7.50;64.80;98459.28;4971326;28;20131;-78
2023/02/18 05:11:43;;;;;;;6.72;3.22;;;;;;;7.50;64.64;98457.34;4970516;28;20046;-78
2023/02/18 05:14:08;;;;;;;2.67;1.45;;;;;;;7.53;64.78;98453.28;4971082;28;20451;-78
2023/02/18 05:16:33;;;;;;;2.67;1.30;;;;;;;7.56;65.46;98466.34;4970930;28;20057;-78
2023/02/18 05:18:59;;;;;;;2.40;1.17;;;;;;;7.59;64.81;98463.06;4971516;28;20452;-78
2023/02/18 05:21:25;;;;;;;2.40;1.00;;;;;;;7.61;64.83;98447.22;4971288;28;20035;-78
2023/02/18 05:23:50;;;;;;;1.75;0.95;;;;;;;7.64;64.33;98452.13;4969870;28;20042;-78
2023/02/18 05:26:16;;;;;;;2.30;1.05;;;;;;;7.64;64.42;98454.84;4971320;28;20574;-78
2023/02/18 05:28:41;;;;;;;1.92;1.10;;;;;;;7.67;64.49;98458.97;4970997;28;20031;-78
2023/02/18 05:31:07;;;;;;;2.20;1.20;;;;;;;7.68;64.17;98458.69;4970709;28;20035;-78
2023/02/18 05:33:32;;;;;;;6.47;2.10;;;;;;;7.70;64.35;98461.16;4971274;28;20026;-77
2023/02/18 05:35:57;;;;;;;3.33;1.17;;;;;;;7.71;64.70;98460.84;4971088;28;20038;-77
2023/02/18 05:38:23;;;;;;;2.33;1.08;;;;;;;7.73;63.83;98464.13;4970565;28;20043;-78
2023/02/18 05:40:48;;;;;;;4.40;1.90;;;;;;;7.74;64.17;98470.41;4971095;28;20029;-78
2023/02/18 05:43:14;;;;;;;2.85;1.30;;;;;;;7.75;63.81;98461.94;4968729;28;20039;-78
2023/02/18 05:45:39;;;;;;;3.38;1.30;;;;;;;7.77;64.14;98469.84;4970258;28;20031;-78
2023/02/18 05:48:04;;;;;;;3.47;1.38;;;;;;;7.79;63.96;98469.56;4970327;28;20379;-78
2023/02/18 05:50:30;;;;;;;2.45;1.23;;;;;;;7.80;63.82;98471.22;4967785;28;20085;-78
2023/02/18 05:52:55;;;;;;;2.65;1.05;;;;;;;7.81;63.04;98475.56;4970430;28;20047;-78
2023/02/18 05:55:21;;;;;;;2.33;1.00;;;;;;;7.84;63.54;98472.28;4970695;28;20093;-78
2023/02/18 05:57:46;;;;;;;2.53;1.10;;;;;;;7.84;63.21;98469.56;4970642;28;20081;-78
2023/02/18 06:00:13;;;;;;;3.20;1.30;;;;;;;7.85;63.38;98466.53;4972067;28;20058;-77
2023/02/18 06:02:38;;;;;;;2.65;1.20;;;;;;;7.85;62.95;98463.81;4976950;28;20027;-78
2023/02/18 06:05:04;;;;;;;3.10;1.35;;;;;;;7.88;63.36;98465.19;4977038;28;20061;-78
2023/02/18 06:07:30;;;;;;;4.20;1.33;;;;;;;7.87;62.88;98477.19;4977150;28;20033;-76
2023/02/18 06:09:55;;;;;;;4.65;1.40;;;;;;;7.89;61.59;98470.34;4977149;28;20530;-77
2023/02/18 06:12:21;;;;;;;3.92;1.15;;;;;;;7.87;61.51;98472.53;4977392;28;20023;-78
2023/02/18 06:14:46;;;;;;;3.80;1.40;;;;;;;7.88;61.24;98470.66;4975949;28;20098;-82
2023/02/18 06:17:13;;;;;;;3.22;1.00;;;;;;;7.89;61.74;98484.00;4976801;28;20085;-82
2023/02/18 06:19:38;;;;;;;3.67;1.15;;;;;;;7.90;60.93;98488.38;4977290;28;20117;-82
2023/02/18 06:22:04;;;;;;;2.90;1.20;;;;;;;7.90;61.03;98474.72;4976982;28;20115;-82
2023/02/18 06:24:30;;;;;;;2.60;1.08;;;;;;;7.92;60.84;98482.66;4977210;28;20026;-81
2023/02/18 06:26:55;;;;;;;3.33;1.20;;;;;;;7.93;60.02;98473.38;4976564;28;20031;-82
2023/02/18 06:29:21;;;;;;;2.00;0.80;;;;;;;7.94;59.41;98491.38;4975297;28;20462;-81
2023/02/18 06:31:46;;;;;;;2.47;1.25;;;;;;;7.93;59.98;98484.28;4975922;28;20023;-83
2023/02/18 06:34:12;;;;;;;2.53;1.00;;;;;;;7.94;58.58;98477.72;4976069;28;20432;-82
2023/02/18 06:36:37;;;;;;;4.38;1.55;;;;;;;7.97;57.36;98490.78;4976883;28;20037;-82
2023/02/18 06:39:04;;;;;;;2.38;1.05;;;;;;;7.96;59.18;98472.78;4977098;28;20089;-82
2023/02/18 06:41:30;;;;;;;2.20;1.10;;;;;;;7.99;57.35;98474.16;4977004;28;20045;-82
2023/02/18 06:43:55;;;;;;;1.80;1.10;;;;;;;8.00;56.66;98473.06;4977247;28;20026;-83
2023/02/18 06:46:20;;;;;;;2.58;1.15;;;;;;;8.02;56.19;98476.31;4977102;28;20023;-82
2023/02/18 06:48:46;;;;;;;2.88;0.93;;;;;;;8.04;55.95;98474.13;4975277;28;20061;-83
2023/02/18 06:51:12;;;;;;;1.80;0.60;;;;;;;8.05;55.56;98482.03;4976500;28;20059;-82
2023/02/18 06:53:37;;;;;;;3.72;1.20;;;;;;;8.07;55.70;98475.47;4976842;28;20395;-82
2023/02/18 06:56:03;;;;;;;2.60;1.00;;;;;;;8.08;56.55;98497.06;4973931;28;20158;-82
2023/02/18 06:58:28;;;;;;;2.22;1.20;;;;;;;8.12;56.78;98494.59;4976335;28;20042;-83
2023/02/18 07:00:57;;;;;;;1.77;1.00;;;;;;;8.13;56.63;98494.31;4975090;28;20027;-82
2023/02/18 07:03:22;;;;;;;2.35;1.05;;;;;;;8.14;56.90;98487.75;4977881;28;20031;-83
2023/02/18 07:05:48;;;;;;;2.75;1.10;;;;;;;8.18;55.34;98507.94;4978279;28;20027;-83
2023/02/18 07:08:13;;;;;;;2.88;1.23;;;;;;;8.18;55.78;98499.75;4977041;28;20034;-82
2023/02/18 07:10:39;;;;;;;4.75;1.30;;;;;;;8.20;56.37;98497.53;4977749;28;20031;-82
2023/02/18 07:13:04;;;;;;;2.22;1.10;;;;;;;8.24;56.53;98489.63;4973746;28;20059;-83
2023/02/18 07:15:30;;;;;;;4.63;1.50;;;;;;;8.29;56.83;98494.25;4974524;28;20026;-83
2023/02/18 07:17:55;;;;;;;6.07;2.17;;;;;;;8.30;56.58;98495.88;4974544;28;20046;-84
2023/02/18 07:20:22;;;;;;;3.40;1.95;;;;;;;8.34;57.01;98489.59;4974118;28;20386;-83
2023/02/18 07:22:48;;;;;;;3.15;1.20;;;;;;;8.38;56.65;98495.28;4973213;28;20019;-84
2023/02/18 07:25:14;;;;;;;2.40;1.45;;;;;;;8.38;54.76;98491.72;4973981;28;20126;-82
2023/02/18 07:27:39;;;;;;;4.88;1.70;;;;;;;8.40;55.99;98492.25;4974830;28;20047;-82
2023/02/18 07:30:08;;;;;;;3.05;1.70;;;;;;;8.38;56.59;98491.72;4973898;28;20027;-87
2023/02/18 07:32:33;;;;;;;5.70;2.40;;;;;;;8.42;56.03;98498.28;4974899;28;20110;-84
2023/02/18 07:34:59;;;;;;;6.07;3.33;;;;;;;8.44;56.42;98502.38;4974511;28;20845;-81
2023/02/18 07:37:24;;;;;;;2.25;1.13;;;;;;;8.47;55.12;98506.44;4989139;28;20037;-83
2023/02/18 07:39:50;;;;;;;3.13;1.13;;;;;;;8.48;54.94;98505.34;4974044;28;20026;-81
2023/02/18 07:42:15;;;;;;;6.05;3.38;;;;;;;8.49;55.56;98510.59;4973148;28;20015;-81
2023/02/18 07:44:41;;;;;;;9.38;6.22;;;;;;;8.46;56.05;98494.72;4973862;28;20456;-74
2023/02/18 07:47:07;;;;;;;5.72;2.13;;;;;;;8.49;55.17;98504.28;4972115;28;20030;-74
2023/02/18 07:49:33;;;;;;;14.18;5.03;;;;;;;8.48;54.29;98497.16;4975857;28;20045;-74
2023/02/18 07:51:59;;;;;;;4.90;1.98;;;;;;;8.49;55.18;98499.66;4972350;28;20055;-75
2023/02/18 07:54:24;;;;;;;3.42;1.50;;;;;;;8.48;54.36;98508.09;4973017;28;20026;-74
2023/02/18 07:56:50;;;;;;;4.78;1.40;;;;;;;8.46;55.32;98499.34;4971693;28;20022;-75
2023/02/18 07:59:16;;;;;;;4.63;2.20;;;;;;;8.45;53.86;98489.50;4974403;28;20480;-74
2023/02/18 08:01:41;;;;;;;4.10;1.70;;;;;;;8.47;53.78;98506.44;4974015;28;20031;-74
2023/02/18 08:04:07;;;;;;;5.22;2.15;;;;;;;8.48;54.86;98505.34;4972853;28;20077;-74
2023/02/18 08:06:35;;;;;;;4.07;1.40;;;;;;;8.50;54.23;98508.66;4968336;28;20400;-75
2023/02/18 08:09:03;;;;;;;4.90;1.30;;;;;;;8.50;53.37;98497.72;4971849;28;20041;-75
2023/02/18 08:11:29;;;;;;;4.55;1.50;;;;;;;8.47;54.33;98492.78;4971828;28;20035;-74
2023/02/18 08:13:55;;;;;;;6.25;2.28;;;;;;;8.47;54.25;98500.97;4972619;28;20387;-74
2023/02/18 08:16:21;;;;;;;6.25;2.30;;;;;;;8.46;54.03;98502.91;4972466;28;20034;-73
2023/02/18 08:18:48;;;;;;;3.15;1.77;;;;;;;8.45;54.79;98492.25;4971567;28;20031;-74
2023/02/18 08:21:15;;;;;;;4.93;2.53;;;;;;;8.43;54.42;98495.28;4971899;28;20027;-83
2023/02/18 08:23:41;;;;;;;5.18;2.08;;;;;;;8.44;55.00;98509.75;4971239;28;20035;-80
2023/02/18 08:26:07;;;;;;;4.53;1.58;;;;;;;8.45;55.62;98503.19;4971582;28;20078;-79
2023/02/18 08:28:32;;;;;;;4.18;1.50;;;;;;;8.44;55.25;98490.59;4987510;28;20497;-79
2023/02/18 08:30:58;;;;;;;4.93;2.00;;;;;;;8.46;55.29;98504.81;4972552;28;20023;-78
2023/02/18 08:33:24;;;;;;;5.55;2.17;;;;;;;8.48;55.15;98502.63;4970866;28;20034;-79
2023/02/18 08:35:52;;;;;;;5.47;2.45;;;;;;;8.49;56.06;98496.91;4971973;28;20031;-80
2023/02/18 08:38:17;;;;;;;6.03;2.63;;;;;;;8.51;55.79;98493.88;4985523;28;20066;-80
2023/02/18 08:40:43;;;;;;;6.85;2.50;;;;;;;8.55;56.60;98477.75;4969376;28;20083;-78
2023/02/18 08:43:09;;;;;;;4.53;2.35;;;;;;;8.56;56.20;98491.13;4970916;28;20023;-77
2023/02/18 08:45:37;;;;;;;5.53;2.83;;;;;;;8.59;56.21;98487.84;4969367;28;20501;-80
2023/02/18 08:48:03;;;;;;;6.93;2.72;;;;;;;8.62;55.80;98492.75;4971351;28;20034;-78
2023/02/18 08:50:28;;;;;;;3.80;1.98;;;;;;;8.60;56.24;98492.19;4972480;28;20491;-76
2023/02/18 08:52:55;;;;;;;3.50;2.15;;;;;;;8.61;56.36;98493.84;4972431;28;20134;-80
2023/02/18 08:55:21;;;;;;;6.70;3.10;;;;;;;8.62;56.25;98500.94;4971112;28;20026;-84
2023/02/18 08:57:47;;;;;;;4.22;2.05;;;;;;;8.63;55.74;98493.53;4968229;28;20030;-85
2023/02/18 09:00:15;;;;;;;8.38;3.03;;;;;;;8.63;56.33;98502.56;4970855;28;20539;-84
2023/02/18 09:02:48;;;;;;;6.28;2.45;;;;;;;8.64;56.32;98509.69;4986190;28;20097;-80
2023/02/18 09:05:14;;;;;;;6.40;2.80;;;;;;;8.69;57.15;98497.06;4969265;28;20065;-83
2023/02/18 09:07:40;;;;;;;13.00;5.72;;;;;;;8.71;56.40;98486.69;4971304;28;20468;-79
2023/02/18 09:10:09;;;;;;;9.85;3.90;;;;;;;8.74;56.39;98510.72;4970286;28;20120;-79
2023/02/18 09:12:35;;;;;;;8.27;3.30;;;;;;;8.75;56.00;98501.41;4969775;28;20038;-80
2023/02/18 09:15:01;;;;;;;8.77;3.63;;;;;;;8.75;55.98;98506.88;4969527;28;20065;-79
2023/02/18 09:17:30;;;;;;;10.50;3.70;;;;;;;8.74;56.90;98513.47;4969530;28;20035;-80
2023/02/18 09:19:55;;;;;;;9.52;3.35;;;;;;;8.71;56.47;98509.34;4970500;28;20125;-79
2023/02/18 09:22:21;;;;;;;9.25;3.70;;;;;;;8.72;56.66;98505.53;4972288;28;20106;-80
2023/02/18 09:24:47;;;;;;;5.53;2.35;;;;;;;8.73;56.21;98507.16;4968857;28;20030;-80
2023/02/18 09:27:12;;;;;;;5.50;2.22;;;;;;;8.74;55.83;98505.25;4969175;28;20033;-80
2023/02/18 09:29:39;;;;;;;4.43;2.00;;;;;;;8.76;56.23;98501.13;4970491;28;20034;-80
2023/02/18 09:32:06;;;;;;;5.82;2.33;;;;;;;8.84;55.88;98507.09;4970806;28;20110;-80
2023/02/18 09:34:32;;;;;;;5.78;2.47;;;;;;;8.89;54.59;98483.25;4970400;28;20038;-79
2023/02/18 09:36:59;;;;;;;6.55;3.45;;;;;;;8.93;55.97;98498.00;4970454;28;20039;-80
2023/02/18 09:39:24;;;;;;;4.20;1.73;;;;;;;8.98;53.98;98482.66;4971790;28;20038;-79
2023/02/18 09:42:02;;;;;;;6.03;2.55;;;;;;;8.95;55.63;98481.31;4972173;28;20396;-80
2023/02/18 09:44:39;;;;;;;6.22;2.10;;;;;;;8.96;55.31;98477.47;4972266;28;20101;-80
2023/02/18 09:47:15;;;;;;;8.05;3.80;;;;;;;8.91;53.25;98489.25;4971406;28;20435;-79
2023/02/18 09:49:48;;;;;;;3.60;1.75;;;;;;;8.86;53.32;98505.69;4972339;28;20435;-81
2023/02/18 09:52:22;;;;;;;2.53;1.00;;;;;;;8.77;52.98;98486.34;4971968;28;20050;-80
2023/02/18 09:54:48;;;;;;;6.88;2.30;;;;;;;8.71;50.79;98483.94;4971573;28;20042;-80
2023/02/18 09:57:25;;;;;;;3.28;1.35;;;;;;;8.59;51.95;98493.28;4971754;28;20570;-81
2023/02/18 09:59:58;;;;;;;3.92;1.15;;;;;;;8.55;52.02;98478.56;4972273;28;20034;-80
2023/02/18 10:02:25;;;;;;;3.90;1.70;;;;;;;8.51;52.05;98488.41;4972176;28;20027;-81
2023/02/18 10:04:53;;;;;;;14.90;5.53;;;;;;;8.50;52.08;98475.84;4971861;28;20034;-81
2023/02/18 10:07:27;;;;;;;15.98;5.72;;;;;;;8.49;53.35;98485.97;4971898;28;20494;-81
2023/02/18 10:09:54;;;;;;;4.82;1.70;;;;;;;8.52;52.74;98479.13;4972257;28;20045;-81
2023/02/18 10:12:23;;;;;;;6.25;2.00;;;;;;;8.53;52.08;98477.22;4971890;28;20038;-80
2023/02/18 10:14:58;;;;;;;4.00;1.70;;;;;;;8.53;53.38;98479.94;4971592;28;20027;-81
2023/02/18 10:17:27;;;;;;;4.53;1.65;;;;;;;8.55;52.69;98480.50;4971712;28;20035;-80
2023/02/18 10:19:54;;;;;;;4.00;1.80;;;;;;;8.50;53.05;98481.31;4969561;28;20105;-80
2023/02/18 10:22:22;;;;;;;4.43;1.38;;;;;;;8.45;53.64;98487.59;4965254;28;20361;-81
2023/02/18 10:25:03;;;;;;;2.75;1.20;;;;;;;8.37;54.12;98488.19;4969473;28;20034;-81
2023/02/18 10:27:30;;;;;;;7.90;2.42;;;;;;;8.33;54.19;98473.44;4968263;28;20063;-80
2023/02/18 10:30:16;;;;;;;30.70;8.32;;;;;;;8.25;54.94;98480.31;4970375;28;20050;-81
2023/02/18 10:32:46;;;;;;;10.88;2.97;;;;;;;8.16;55.77;98484.72;4969802;28;20037;-83
2023/02/18 10:35:28;;;;;;;5.47;1.52;;;;;;;7.99;56.27;98485.88;4971817;28;20034;-81
2023/02/18 10:38:16;;;;;;;6.07;1.90;;;;;;;7.89;56.63;98491.41;4970314;28;20031;-81
2023/02/18 10:40:54;;;;;;;7.00;2.67;;;;;;;7.76;57.45;98479.13;4969849;28;20038;-82
2023/02/18 10:43:41;;;;;;;15.68;3.78;;;;;;;7.66;58.54;98479.97;4970197;28;20026;-80
2023/02/18 10:46:06;;;;;;;5.95;2.00;;;;;;;7.53;58.26;98469.66;4967442;28;20031;-79
2023/02/18 10:48:46;;;;;;;11.70;3.00;;;;;;;7.38;58.98;98465.00;4971798;28;20033;-79
2023/02/18 10:51:20;;;;;;;5.97;2.17;;;;;;;7.29;60.79;98464.75;4972132;28;20053;-79
2023/02/18 10:53:49;;;;;;;5.53;1.98;;;;;;;7.14;60.77;98463.66;4972064;28;20069;-80
2023/02/18 10:56:35;;;;;;;8.32;2.20;;;;;;;7.03;61.41;98461.22;4972246;28;20121;-78
2023/02/18 10:59:09;;;;;;;7.80;3.42;;;;;;;6.95;60.99;98459.84;4971426;28;20039;-79
2023/02/18 11:01:35;;;;;;;5.00;1.95;;;;;;;6.89;61.78;98456.31;4970888;28;20093;-80
2023/02/18 11:04:15;;;;;;;10.18;3.30;;;;;;;6.87;61.78;98449.50;4972906;28;20460;-79
2023/02/18 11:06:47;;;;;;;7.35;3.40;;;;;;;6.87;62.50;98447.59;4972015;28;20180;-80
2023/02/18 11:09:37;;;;;;;14.65;5.47;;;;;;;6.84;62.36;98438.03;4972382;28;20578;-80
2023/02/18 11:12:32;;;;;;;19.15;6.28;;;;;;;6.86;62.71;98426.88;4973532;28;20038;-80
2023/02/18 11:15:13;;;;;;;123.50;31.98;;;;;;;6.84;62.57;98418.97;4970825;28;20038;-81
2023/02/18 11:17:40;;;;;;;213.60;50.47;;;;;;;6.86;62.91;98413.25;4972769;28;20029;-79
2023/02/18 11:20:24;;;;;;;113.60;32.45;;;;;;;6.84;63.32;98405.31;4973208;28;20019;-80
2023/02/18 11:22:50;;;;;;;43.33;14.25;;;;;;;6.87;63.30;98403.16;4971804;28;20031;-80
2023/02/18 11:25:22;;;;;;;65.63;21.45;;;;;;;6.90;63.24;98410.78;4971641;28;20538;-78
2023/02/18 11:28:16;;;;;;;43.63;13.50;;;;;;;6.95;63.46;98394.41;4972049;28;20097;-80
2023/02/18 11:30:52;;;;;;;15.48;4.43;;;;;;;7.01;63.85;98387.88;4971161;28;20031;-79
2023/02/18 11:33:25;;;;;;;14.95;4.75;;;;;;;7.07;63.89;98381.31;4971899;28;20027;-79
2023/02/18 11:35:56;;;;;;;25.95;8.38;;;;;;;7.12;63.90;98372.31;4971859;28;20033;-79
2023/02/18 11:38:24;;;;;;;30.63;10.68;;;;;;;7.18;63.96;98354.00;4971450;28;20014;-79
2023/02/18 11:40:55;;;;;;;24.88;7.57;;;;;;;7.21;64.18;98356.19;4971645;28;20037;-80
2023/02/18 11:43:20;;;;;;;7.68;2.88;;;;;;;7.25;64.42;98349.09;4971171;28;20035;-79
2023/02/18 11:45:46;;;;;;;9.00;4.50;;;;;;;7.32;64.34;98343.38;4971503;28;20440;-79
2023/02/18 11:48:22;;;;;;;14.48;5.22;;;;;;;7.34;64.17;98332.97;4971965;28;20037;-79
2023/02/18 11:50:52;;;;;;;18.77;6.40;;;;;;;7.37;64.24;98341.41;4969772;28;20026;-81